• Join FlightAware (Why Join?)
  • Login
  • US Flag 
05:26PM EDT


 

Airport Tracker/Info


-or-


 

Live Flight TrackerFlight Track Log ✈ CSN3231 ✈ 05-Jul-2013 ✈ ZGKL / KWL - ZGGG / CAN

Flight Track Log - Related Links

Times and Time Zones

All times are in EDT time to prevent confusion due to time zone crossing. See the CSN3231 flight status page for this flight to view local times or setup timezone preferences in your user account.

Time Position Orientation Groundspeed Altitude Reporting Facility
EDT Latitude Longitude Course Direction KTS MPH feet Rate Location/Type
07:41PM 25.1584 110.1493 121° Southeast  Level Estimated
07:42PM 25.0987 110.2593 121° Southeast  Level Estimated
07:43PM 25.0388 110.3692 121° Southeast  Level Estimated
07:44PM 24.9789 110.4790 121° Southeast  Level Estimated
07:45PM 24.9189 110.5887 121° Southeast  Level Estimated
07:46PM 24.8588 110.6982 121° Southeast  Level Estimated
07:47PM 24.7987 110.8077 121° Southeast  Level Estimated
07:48PM 24.7384 110.9171 121° Southeast  Level Estimated
07:49PM 24.6781 111.0263 121° Southeast  Level Estimated
07:50PM 24.6177 111.1355 121° Southeast  Level Estimated
07:51PM 24.5572 111.2445 121° Southeast  Level Estimated
07:52PM 24.4967 111.3535 121° Southeast  Level Estimated
07:53PM 24.4361 111.4623 121° Southeast  Level Estimated
07:54PM 24.3754 111.5710 121° Southeast  Level Estimated
07:55PM 24.3146 111.6796 122° Southeast  Level Estimated
07:56PM 24.2537 111.7882 122° Southeast  Level Estimated
07:57PM 24.1928 111.8966 122° Southeast  Level Estimated
07:58PM 24.1317 112.0049 122° Southeast  Level Estimated
07:59PM 24.0707 112.1131 122° Southeast  Level Estimated
08:00PM 24.0095 112.2212 122° Southeast  Level Estimated
08:01PM 23.9482 112.3292 122° Southeast  Level Estimated
08:02PM 23.8869 112.4371 122° Southeast  Level Estimated
08:03PM 23.8255 112.5449 122° Southeast  Level Estimated
08:04PM 23.7640 112.6526 122° Southeast  Level Estimated
08:05PM 23.7025 112.7602 122° Southeast  Level Estimated
08:06PM 23.6409 112.8677 122° Southeast  Level Estimated
08:07PM 23.5792 112.9751 122° Southeast  Level Estimated
08:08PM 23.5174 113.0824 122° Southeast  Level Estimated
08:09PM 23.4556 113.1896 122° Southeast  Level Estimated
08:10PM 23.3937 113.2967 122° Southeast  Level Estimated
08:11PM 23.3924 113.2988 122° Southeast  Level Estimated
08:12PM 23.3924 113.2988 223° Southwest  Level Estimated
08:13PM 23.3924 113.2988 223° Southwest  Level Estimated
08:14PM 23.3924 113.2988 223° Southwest  Level Estimated
08:15PM 23.3924 113.2988 223° Southwest  Level Estimated
08:16PM 23.3924 113.2988 223° Southwest  Level Estimated
08:17PM 23.3924 113.2988 223° Southwest  Level Estimated
08:18PM 23.3924 113.2988 223° Southwest  Level Estimated
08:19PM 23.3924 113.2988 223° Southwest  Level Estimated
08:20PM 23.3924 113.2988 223° Southwest  Level Estimated